sensor_id;sensor_type;location;lat;lon;timestamp;P1;durP1;ratioP1;P2;durP2;ratioP2
31061;SDS011;17724;53.546;9.974;2023-03-03T00:03:08;29.97;;;19.40;;
31061;SDS011;17724;53.546;9.974;2023-03-03T00:07:11;32.10;;;18.57;;
31061;SDS011;17724;53.546;9.974;2023-03-03T00:11:12;31.87;;;19.80;;
31061;SDS011;17724;53.546;9.974;2023-03-03T00:15:16;30.33;;;18.60;;
31061;SDS011;17724;53.546;9.974;2023-03-03T00:19:19;32.90;;;21.00;;
31061;SDS011;17724;53.546;9.974;2023-03-03T00:27:33;33.50;;;18.50;;
31061;SDS011;17724;53.546;9.974;2023-03-03T00:31:37;32.00;;;20.67;;
31061;SDS011;17724;53.546;9.974;2023-03-03T00:35:37;29.47;;;17.97;;
31061;SDS011;17724;53.546;9.974;2023-03-03T00:39:38;32.80;;;18.80;;
31061;SDS011;17724;53.546;9.974;2023-03-03T00:43:39;33.60;;;19.17;;
31061;SDS011;17724;53.546;9.974;2023-03-03T00:47:40;31.40;;;19.80;;
31061;SDS011;17724;53.546;9.974;2023-03-03T00:51:42;32.30;;;18.80;;
31061;SDS011;17724;53.546;9.974;2023-03-03T00:55:43;32.70;;;20.50;;
31061;SDS011;17724;53.546;9.974;2023-03-03T00:59:45;30.80;;;18.60;;
31061;SDS011;17724;53.546;9.974;2023-03-03T01:03:46;34.87;;;20.00;;
31061;SDS011;17724;53.546;9.974;2023-03-03T01:07:46;32.33;;;18.80;;
31061;SDS011;17724;53.546;9.974;2023-03-03T01:11:47;29.57;;;17.63;;
31061;SDS011;17724;53.546;9.974;2023-03-03T01:15:49;30.13;;;19.40;;
31061;SDS011;17724;53.546;9.974;2023-03-03T01:19:50;32.50;;;19.67;;
31061;SDS011;17724;53.546;9.974;2023-03-03T01:23:51;30.67;;;20.00;;
31061;SDS011;17724;53.546;9.974;2023-03-03T01:27:52;27.30;;;17.23;;
31061;SDS011;17724;53.546;9.974;2023-03-03T01:31:52;30.00;;;19.40;;
31061;SDS011;17724;53.546;9.974;2023-03-03T01:35:53;32.77;;;18.87;;
31061;SDS011;17724;53.546;9.974;2023-03-03T01:39:53;24.93;;;16.07;;
31061;SDS011;17724;53.546;9.974;2023-03-03T01:43:54;30.33;;;19.47;;
31061;SDS011;17724;53.546;9.974;2023-03-03T01:47:57;31.77;;;19.23;;
31061;SDS011;17724;53.546;9.974;2023-03-03T01:51:59;27.30;;;17.87;;
31061;SDS011;17724;53.546;9.974;2023-03-03T01:56:02;25.30;;;16.60;;
31061;SDS011;17724;53.546;9.974;2023-03-03T02:00:05;26.20;;;17.30;;
31061;SDS011;17724;53.546;9.974;2023-03-03T02:04:12;33.40;;;19.33;;
31061;SDS011;17724;53.546;9.974;2023-03-03T02:08:15;31.53;;;18.60;;
31061;SDS011;17724;53.546;9.974;2023-03-03T02:12:22;27.40;;;16.40;;
31061;SDS011;17724;53.546;9.974;2023-03-03T02:16:31;31.00;;;17.63;;
31061;SDS011;17724;53.546;9.974;2023-03-03T02:24:48;28.90;;;19.03;;
31061;SDS011;17724;53.546;9.974;2023-03-03T02:28:53;27.97;;;17.33;;
31061;SDS011;17724;53.546;9.974;2023-03-03T02:32:54;23.43;;;15.00;;
31061;SDS011;17724;53.546;9.974;2023-03-03T02:36:55;25.47;;;15.60;;
31061;SDS011;17724;53.546;9.974;2023-03-03T02:40:58;27.73;;;15.50;;
31061;SDS011;17724;53.546;9.974;2023-03-03T02:45:08;24.80;;;16.77;;
31061;SDS011;17724;53.546;9.974;2023-03-03T02:49:09;24.30;;;15.13;;
31061;SDS011;17724;53.546;9.974;2023-03-03T02:53:11;23.07;;;15.93;;
31061;SDS011;17724;53.546;9.974;2023-03-03T02:57:12;23.30;;;14.47;;
31061;SDS011;17724;53.546;9.974;2023-03-03T03:01:13;21.00;;;14.70;;
31061;SDS011;17724;53.546;9.974;2023-03-03T03:05:15;21.90;;;14.67;;
31061;SDS011;17724;53.546;9.974;2023-03-03T03:09:16;20.10;;;13.57;;
31061;SDS011;17724;53.546;9.974;2023-03-03T03:13:18;20.27;;;13.37;;
31061;SDS011;17724;53.546;9.974;2023-03-03T03:17:19;17.70;;;12.90;;
31061;SDS011;17724;53.546;9.974;2023-03-03T03:21:20;19.30;;;13.70;;
31061;SDS011;17724;53.546;9.974;2023-03-03T03:25:21;18.90;;;13.63;;
31061;SDS011;17724;53.546;9.974;2023-03-03T03:29:21;20.53;;;14.37;;
31061;SDS011;17724;53.546;9.974;2023-03-03T03:33:23;19.90;;;13.27;;
31061;SDS011;17724;53.546;9.974;2023-03-03T03:37:25;19.07;;;12.97;;
31061;SDS011;17724;53.546;9.974;2023-03-03T03:41:25;18.33;;;12.73;;
31061;SDS011;17724;53.546;9.974;2023-03-03T03:45:26;18.83;;;12.23;;
31061;SDS011;17724;53.546;9.974;2023-03-03T03:49:26;19.37;;;13.67;;
31061;SDS011;17724;53.546;9.974;2023-03-03T03:53:30;18.80;;;12.70;;
31061;SDS011;17724;53.546;9.974;2023-03-03T03:57:31;19.23;;;13.33;;
31061;SDS011;17724;53.546;9.974;2023-03-03T04:01:32;20.03;;;13.60;;
31061;SDS011;17724;53.546;9.974;2023-03-03T04:05:33;19.73;;;12.90;;
31061;SDS011;17724;53.546;9.974;2023-03-03T04:09:34;17.63;;;12.30;;
31061;SDS011;17724;53.546;9.974;2023-03-03T04:13:35;18.40;;;12.50;;
31061;SDS011;17724;53.546;9.974;2023-03-03T04:17:39;18.40;;;13.17;;
31061;SDS011;17724;53.546;9.974;2023-03-03T04:21:40;18.30;;;12.87;;
31061;SDS011;17724;53.546;9.974;2023-03-03T04:25:41;22.20;;;14.90;;
31061;SDS011;17724;53.546;9.974;2023-03-03T04:29:47;19.83;;;13.23;;
31061;SDS011;17724;53.546;9.974;2023-03-03T04:33:48;22.93;;;14.40;;
31061;SDS011;17724;53.546;9.974;2023-03-03T04:37:48;22.50;;;14.37;;
31061;SDS011;17724;53.546;9.974;2023-03-03T04:41:50;26.90;;;15.90;;
31061;SDS011;17724;53.546;9.974;2023-03-03T04:45:51;26.97;;;16.77;;
31061;SDS011;17724;53.546;9.974;2023-03-03T04:49:52;27.80;;;15.47;;
31061;SDS011;17724;53.546;9.974;2023-03-03T04:53:53;27.40;;;17.27;;
31061;SDS011;17724;53.546;9.974;2023-03-03T04:57:53;26.10;;;17.83;;
31061;SDS011;17724;53.546;9.974;2023-03-03T05:01:54;27.00;;;16.73;;
31061;SDS011;17724;53.546;9.974;2023-03-03T05:05:54;28.87;;;18.30;;
31061;SDS011;17724;53.546;9.974;2023-03-03T05:09:55;24.83;;;16.77;;
31061;SDS011;17724;53.546;9.974;2023-03-03T05:13:55;25.30;;;16.17;;
31061;SDS011;17724;53.546;9.974;2023-03-03T05:17:56;29.30;;;16.50;;
31061;SDS011;17724;53.546;9.974;2023-03-03T05:21:57;25.10;;;16.27;;
31061;SDS011;17724;53.546;9.974;2023-03-03T05:25:57;27.17;;;17.30;;
31061;SDS011;17724;53.546;9.974;2023-03-03T05:29:58;31.83;;;18.07;;
31061;SDS011;17724;53.546;9.974;2023-03-03T05:33:58;30.70;;;18.70;;
31061;SDS011;17724;53.546;9.974;2023-03-03T05:37:59;30.10;;;18.97;;
31061;SDS011;17724;53.546;9.974;2023-03-03T05:42:00;29.40;;;17.77;;
31061;SDS011;17724;53.546;9.974;2023-03-03T05:46:01;28.33;;;17.60;;
31061;SDS011;17724;53.546;9.974;2023-03-03T05:50:02;27.90;;;17.17;;
31061;SDS011;17724;53.546;9.974;2023-03-03T05:54:03;30.00;;;19.00;;
31061;SDS011;17724;53.546;9.974;2023-03-03T05:58:03;30.33;;;18.43;;
31061;SDS011;17724;53.546;9.974;2023-03-03T06:02:04;35.87;;;17.80;;
31061;SDS011;17724;53.546;9.974;2023-03-03T06:06:04;28.63;;;17.23;;
31061;SDS011;17724;53.546;9.974;2023-03-03T06:10:05;29.47;;;18.40;;
31061;SDS011;17724;53.546;9.974;2023-03-03T06:14:09;28.80;;;18.50;;
31061;SDS011;17724;53.546;9.974;2023-03-03T06:18:10;32.90;;;18.80;;
31061;SDS011;17724;53.546;9.974;2023-03-03T06:22:10;29.03;;;18.00;;
31061;SDS011;17724;53.546;9.974;2023-03-03T06:26:11;29.30;;;17.97;;
31061;SDS011;17724;53.546;9.974;2023-03-03T06:30:11;29.43;;;17.20;;
31061;SDS011;17724;53.546;9.974;2023-03-03T06:34:13;31.17;;;19.27;;
31061;SDS011;17724;53.546;9.974;2023-03-03T06:38:13;30.20;;;17.30;;
31061;SDS011;17724;53.546;9.974;2023-03-03T06:42:14;29.70;;;16.73;;
31061;SDS011;17724;53.546;9.974;2023-03-03T06:46:14;29.87;;;18.00;;
31061;SDS011;17724;53.546;9.974;2023-03-03T06:50:17;24.97;;;15.20;;
31061;SDS011;17724;53.546;9.974;2023-03-03T06:54:20;24.73;;;14.63;;
31061;SDS011;17724;53.546;9.974;2023-03-03T06:58:26;20.67;;;13.40;;
31061;SDS011;17724;53.546;9.974;2023-03-03T07:02:28;25.03;;;14.17;;
31061;SDS011;17724;53.546;9.974;2023-03-03T07:06:29;21.60;;;12.87;;
31061;SDS011;17724;53.546;9.974;2023-03-03T07:10:31;21.67;;;13.20;;
31061;SDS011;17724;53.546;9.974;2023-03-03T07:14:31;19.40;;;12.10;;
31061;SDS011;17724;53.546;9.974;2023-03-03T07:18:38;22.77;;;13.70;;
31061;SDS011;17724;53.546;9.974;2023-03-03T07:22:41;23.47;;;14.73;;
31061;SDS011;17724;53.546;9.974;2023-03-03T07:26:42;26.07;;;15.37;;
31061;SDS011;17724;53.546;9.974;2023-03-03T07:30:42;25.67;;;15.30;;
31061;SDS011;17724;53.546;9.974;2023-03-03T07:34:43;25.80;;;16.63;;
31061;SDS011;17724;53.546;9.974;2023-03-03T07:38:49;24.13;;;15.60;;
31061;SDS011;17724;53.546;9.974;2023-03-03T07:42:53;26.70;;;16.93;;
31061;SDS011;17724;53.546;9.974;2023-03-03T07:47:11;26.57;;;16.00;;
31061;SDS011;17724;53.546;9.974;2023-03-03T07:51:24;24.33;;;15.53;;
31061;SDS011;17724;53.546;9.974;2023-03-03T07:59:34;25.40;;;14.93;;
31061;SDS011;17724;53.546;9.974;2023-03-03T08:03:36;25.37;;;16.23;;
31061;SDS011;17724;53.546;9.974;2023-03-03T08:07:36;30.40;;;16.10;;
31061;SDS011;17724;53.546;9.974;2023-03-03T08:11:50;25.37;;;15.67;;
31061;SDS011;17724;53.546;9.974;2023-03-03T08:16:01;26.37;;;16.13;;
31061;SDS011;17724;53.546;9.974;2023-03-03T08:20:06;26.50;;;16.93;;
31061;SDS011;17724;53.546;9.974;2023-03-03T08:24:27;28.70;;;17.20;;
31061;SDS011;17724;53.546;9.974;2023-03-03T08:28:27;27.20;;;17.43;;
31061;SDS011;17724;53.546;9.974;2023-03-03T08:32:28;28.57;;;16.70;;
31061;SDS011;17724;53.546;9.974;2023-03-03T08:36:28;27.93;;;15.80;;
31061;SDS011;17724;53.546;9.974;2023-03-03T08:40:29;25.67;;;16.60;;
31061;SDS011;17724;53.546;9.974;2023-03-03T08:44:29;32.60;;;19.83;;
31061;SDS011;17724;53.546;9.974;2023-03-03T08:48:30;35.27;;;22.03;;
31061;SDS011;17724;53.546;9.974;2023-03-03T08:52:32;34.30;;;22.93;;
31061;SDS011;17724;53.546;9.974;2023-03-03T08:56:33;30.77;;;20.00;;
31061;SDS011;17724;53.546;9.974;2023-03-03T09:00:33;31.40;;;20.20;;
31061;SDS011;17724;53.546;9.974;2023-03-03T09:04:35;29.10;;;19.67;;
31061;SDS011;17724;53.546;9.974;2023-03-03T09:08:36;30.97;;;18.50;;
31061;SDS011;17724;53.546;9.974;2023-03-03T09:12:37;28.07;;;18.40;;
31061;SDS011;17724;53.546;9.974;2023-03-03T09:16:42;30.53;;;20.03;;
31061;SDS011;17724;53.546;9.974;2023-03-03T09:20:50;31.47;;;19.13;;
31061;SDS011;17724;53.546;9.974;2023-03-03T09:24:53;30.50;;;19.20;;
31061;SDS011;17724;53.546;9.974;2023-03-03T09:28:58;29.17;;;18.63;;
31061;SDS011;17724;53.546;9.974;2023-03-03T09:33:23;28.10;;;16.67;;
31061;SDS011;17724;53.546;9.974;2023-03-03T09:37:36;20.77;;;12.17;;
31061;SDS011;17724;53.546;9.974;2023-03-03T09:41:45;20.30;;;12.20;;
31061;SDS011;17724;53.546;9.974;2023-03-03T10:07:52;21.57;;;14.40;;
31061;SDS011;17724;53.546;9.974;2023-03-03T10:12:08;20.03;;;11.63;;
31061;SDS011;17724;53.546;9.974;2023-03-03T10:29:19;20.40;;;13.40;;
31061;SDS011;17724;53.546;9.974;2023-03-03T10:46:51;32.90;;;17.40;;
31061;SDS011;17724;53.546;9.974;2023-03-03T10:51:00;30.47;;;18.70;;
31061;SDS011;17724;53.546;9.974;2023-03-03T11:28:58;18.17;;;12.07;;
31061;SDS011;17724;53.546;9.974;2023-03-03T11:33:20;14.90;;;8.10;;
31061;SDS011;17724;53.546;9.974;2023-03-03T11:37:44;15.73;;;9.67;;
31061;SDS011;17724;53.546;9.974;2023-03-03T11:45:58;17.10;;;10.03;;
31061;SDS011;17724;53.546;9.974;2023-03-03T11:50:04;15.63;;;9.73;;
31061;SDS011;17724;53.546;9.974;2023-03-03T12:02:39;17.80;;;10.00;;
31061;SDS011;17724;53.546;9.974;2023-03-03T12:07:22;18.97;;;11.93;;
31061;SDS011;17724;53.546;9.974;2023-03-03T12:20:12;18.17;;;9.73;;
31061;SDS011;17724;53.546;9.974;2023-03-03T12:28:41;17.63;;;10.10;;
31061;SDS011;17724;53.546;9.974;2023-03-03T12:37:19;18.60;;;9.60;;
31061;SDS011;17724;53.546;9.974;2023-03-03T12:54:17;14.53;;;7.53;;
31061;SDS011;17724;53.546;9.974;2023-03-03T13:15:32;8.50;;;3.50;;
31061;SDS011;17724;53.546;9.974;2023-03-03T13:24:29;9.77;;;3.10;;
31061;SDS011;17724;53.546;9.974;2023-03-03T13:28:48;9.67;;;2.90;;
31061;SDS011;17724;53.546;9.974;2023-03-03T13:32:34;8.10;;;2.20;;
31061;SDS011;17724;53.546;9.974;2023-03-03T13:36:38;10.23;;;2.53;;
31061;SDS011;17724;53.546;9.974;2023-03-03T13:44:43;6.20;;;1.53;;
31061;SDS011;17724;53.546;9.974;2023-03-03T14:06:28;10.77;;;4.70;;
31061;SDS011;17724;53.546;9.974;2023-03-03T14:10:31;13.23;;;4.63;;
31061;SDS011;17724;53.546;9.974;2023-03-03T14:15:00;13.77;;;6.93;;
31061;SDS011;17724;53.546;9.974;2023-03-03T14:19:22;10.10;;;4.13;;
31061;SDS011;17724;53.546;9.974;2023-03-03T14:28:03;9.50;;;4.20;;
31061;SDS011;17724;53.546;9.974;2023-03-03T14:32:20;9.73;;;3.47;;
31061;SDS011;17724;53.546;9.974;2023-03-03T14:36:31;15.43;;;5.10;;
31061;SDS011;17724;53.546;9.974;2023-03-03T14:40:36;12.00;;;3.97;;
31061;SDS011;17724;53.546;9.974;2023-03-03T14:48:51;9.60;;;3.30;;
31061;SDS011;17724;53.546;9.974;2023-03-03T14:57:41;8.00;;;2.13;;
31061;SDS011;17724;53.546;9.974;2023-03-03T15:01:46;10.50;;;3.47;;
31061;SDS011;17724;53.546;9.974;2023-03-03T15:05:47;15.17;;;6.97;;
31061;SDS011;17724;53.546;9.974;2023-03-03T15:09:57;18.20;;;8.30;;
31061;SDS011;17724;53.546;9.974;2023-03-03T15:14:13;14.80;;;4.10;;
31061;SDS011;17724;53.546;9.974;2023-03-03T15:18:16;13.07;;;4.50;;
31061;SDS011;17724;53.546;9.974;2023-03-03T15:22:35;10.83;;;3.80;;
31061;SDS011;17724;53.546;9.974;2023-03-03T15:26:46;13.10;;;3.90;;
31061;SDS011;17724;53.546;9.974;2023-03-03T15:31:27;8.33;;;2.80;;
31061;SDS011;17724;53.546;9.974;2023-03-03T15:44:10;10.50;;;4.20;;
31061;SDS011;17724;53.546;9.974;2023-03-03T15:56:36;12.20;;;4.40;;
31061;SDS011;17724;53.546;9.974;2023-03-03T16:05:02;11.20;;;3.20;;
31061;SDS011;17724;53.546;9.974;2023-03-03T16:26:13;20.33;;;12.80;;
31061;SDS011;17724;53.546;9.974;2023-03-03T16:30:48;22.07;;;9.37;;
31061;SDS011;17724;53.546;9.974;2023-03-03T16:39:20;64.20;;;38.00;;
31061;SDS011;17724;53.546;9.974;2023-03-03T16:52:02;24.37;;;13.70;;
31061;SDS011;17724;53.546;9.974;2023-03-03T16:56:13;45.83;;;31.30;;
31061;SDS011;17724;53.546;9.974;2023-03-03T17:00:21;115.13;;;83.10;;
31061;SDS011;17724;53.546;9.974;2023-03-03T17:04:50;56.43;;;32.43;;
31061;SDS011;17724;53.546;9.974;2023-03-03T17:09:02;29.30;;;18.40;;
31061;SDS011;17724;53.546;9.974;2023-03-03T17:13:19;43.10;;;28.83;;
31061;SDS011;17724;53.546;9.974;2023-03-03T17:17:41;36.97;;;17.90;;
31061;SDS011;17724;53.546;9.974;2023-03-03T17:22:11;34.00;;;19.43;;
31061;SDS011;17724;53.546;9.974;2023-03-03T17:30:29;46.27;;;36.03;;
31061;SDS011;17724;53.546;9.974;2023-03-03T18:01:07;31.43;;;14.03;;
31061;SDS011;17724;53.546;9.974;2023-03-03T18:14:07;38.27;;;21.40;;
31061;SDS011;17724;53.546;9.974;2023-03-03T18:18:40;43.70;;;26.27;;
31061;SDS011;17724;53.546;9.974;2023-03-03T18:22:54;44.10;;;23.10;;
31061;SDS011;17724;53.546;9.974;2023-03-03T18:26:55;66.47;;;50.70;;
31061;SDS011;17724;53.546;9.974;2023-03-03T18:31:18;24.13;;;13.50;;
31061;SDS011;17724;53.546;9.974;2023-03-03T18:35:35;29.07;;;15.20;;
31061;SDS011;17724;53.546;9.974;2023-03-03T18:40:14;30.97;;;16.27;;
31061;SDS011;17724;53.546;9.974;2023-03-03T18:44:30;49.77;;;27.27;;
31061;SDS011;17724;53.546;9.974;2023-03-03T18:57:17;43.73;;;26.23;;
31061;SDS011;17724;53.546;9.974;2023-03-03T19:02:00;39.40;;;23.73;;
31061;SDS011;17724;53.546;9.974;2023-03-03T19:05:46;25.87;;;12.47;;
31061;SDS011;17724;53.546;9.974;2023-03-03T19:09:58;48.43;;;31.13;;
31061;SDS011;17724;53.546;9.974;2023-03-03T19:18:18;68.40;;;44.20;;
31061;SDS011;17724;53.546;9.974;2023-03-03T19:30:43;42.77;;;25.60;;
31061;SDS011;17724;53.546;9.974;2023-03-03T19:57:04;62.13;;;44.23;;
31061;SDS011;17724;53.546;9.974;2023-03-03T20:27:33;29.67;;;12.97;;
31061;SDS011;17724;53.546;9.974;2023-03-03T20:31:50;38.67;;;16.80;;
31061;SDS011;17724;53.546;9.974;2023-03-03T20:58:20;44.03;;;15.60;;
31061;SDS011;17724;53.546;9.974;2023-03-03T21:06:49;34.20;;;16.40;;
31061;SDS011;17724;53.546;9.974;2023-03-03T21:10:56;46.03;;;16.37;;
31061;SDS011;17724;53.546;9.974;2023-03-03T21:15:01;30.03;;;16.47;;
31061;SDS011;17724;53.546;9.974;2023-03-03T21:19:04;37.30;;;23.87;;
31061;SDS011;17724;53.546;9.974;2023-03-03T21:23:11;27.10;;;12.33;;
31061;SDS011;17724;53.546;9.974;2023-03-03T21:27:31;18.70;;;7.17;;
31061;SDS011;17724;53.546;9.974;2023-03-03T21:31:49;28.27;;;13.90;;
31061;SDS011;17724;53.546;9.974;2023-03-03T21:35:56;23.80;;;12.13;;
31061;SDS011;17724;53.546;9.974;2023-03-03T21:40:14;24.97;;;8.60;;
31061;SDS011;17724;53.546;9.974;2023-03-03T21:48:51;13.47;;;4.47;;
31061;SDS011;17724;53.546;9.974;2023-03-03T21:52:51;19.90;;;6.63;;
31061;SDS011;17724;53.546;9.974;2023-03-03T21:56:52;27.00;;;8.40;;
31061;SDS011;17724;53.546;9.974;2023-03-03T22:00:53;22.97;;;7.97;;
31061;SDS011;17724;53.546;9.974;2023-03-03T22:04:53;34.40;;;19.33;;
31061;SDS011;17724;53.546;9.974;2023-03-03T22:08:54;19.43;;;7.37;;
31061;SDS011;17724;53.546;9.974;2023-03-03T22:12:54;31.17;;;11.17;;
31061;SDS011;17724;53.546;9.974;2023-03-03T22:16:55;24.90;;;8.03;;
31061;SDS011;17724;53.546;9.974;2023-03-03T22:20:55;19.60;;;8.07;;
31061;SDS011;17724;53.546;9.974;2023-03-03T22:24:56;27.23;;;11.10;;
31061;SDS011;17724;53.546;9.974;2023-03-03T22:28:56;38.33;;;17.20;;
31061;SDS011;17724;53.546;9.974;2023-03-03T22:33:00;23.07;;;8.20;;
31061;SDS011;17724;53.546;9.974;2023-03-03T22:37:00;21.30;;;6.23;;
31061;SDS011;17724;53.546;9.974;2023-03-03T22:41:01;19.40;;;8.13;;
31061;SDS011;17724;53.546;9.974;2023-03-03T22:45:02;24.77;;;7.33;;
31061;SDS011;17724;53.546;9.974;2023-03-03T22:49:02;20.83;;;6.00;;
31061;SDS011;17724;53.546;9.974;2023-03-03T22:53:03;16.30;;;3.23;;
31061;SDS011;17724;53.546;9.974;2023-03-03T22:57:04;17.77;;;5.90;;
31061;SDS011;17724;53.546;9.974;2023-03-03T23:01:04;13.47;;;3.03;;
31061;SDS011;17724;53.546;9.974;2023-03-03T23:05:05;17.43;;;4.27;;
31061;SDS011;17724;53.546;9.974;2023-03-03T23:09:10;14.90;;;3.50;;
31061;SDS011;17724;53.546;9.974;2023-03-03T23:13:10;18.10;;;3.30;;
31061;SDS011;17724;53.546;9.974;2023-03-03T23:17:11;16.87;;;3.73;;
31061;SDS011;17724;53.546;9.974;2023-03-03T23:21:11;17.53;;;3.57;;
31061;SDS011;17724;53.546;9.974;2023-03-03T23:25:12;15.27;;;4.97;;
31061;SDS011;17724;53.546;9.974;2023-03-03T23:29:13;17.63;;;3.50;;
31061;SDS011;17724;53.546;9.974;2023-03-03T23:33:14;14.90;;;3.60;;
31061;SDS011;17724;53.546;9.974;2023-03-03T23:37:14;15.20;;;3.00;;
31061;SDS011;17724;53.546;9.974;2023-03-03T23:41:15;16.30;;;3.87;;
31061;SDS011;17724;53.546;9.974;2023-03-03T23:45:15;18.20;;;4.77;;
31061;SDS011;17724;53.546;9.974;2023-03-03T23:49:16;12.77;;;4.30;;
31061;SDS011;17724;53.546;9.974;2023-03-03T23:53:16;15.00;;;4.43;;
31061;SDS011;17724;53.546;9.974;2023-03-03T23:57:18;9.70;;;4.07;;
